Time;durP1;ratioP1;P1;durP2;ratioP2;P2;SDS_P1;SDS_P2;PMS_P1;PMS_P2;Temp;Humidity;BMP_temperature;BMP_pressure;BME280_temperature;BME280_humidity;BME280_pressure;Samples;Min_cycle;Max_cycle;Signal;HPM_P1;HPM_P2
2022/07/06 00:01:21;;;;;;;2.65;1.27;;;;;;;;;;5038732;28;20214;-69
2022/07/06 00:03:49;;;;;;;3.25;1.10;;;;;;;;;;5033636;28;20220;-66
2022/07/06 00:06:17;;;;;;;2.67;1.30;;;;;;;;;;5067393;28;20283;-69
2022/07/06 00:08:45;;;;;;;1.65;1.30;;;;;;;;;;5033039;28;20653;-69
2022/07/06 00:11:10;;;;;;;1.70;1.25;;;;;;;;;;5047857;28;20296;-68
2022/07/06 00:13:36;;;;;;;2.97;1.35;;;;;;;;;;5058136;28;20265;-68
2022/07/06 00:16:01;;;;;;;1.30;1.10;;;;;;;;;;5052610;28;20605;-69
2022/07/06 00:18:29;;;;;;;2.00;1.00;;;;;;;;;;5050692;28;20222;-68
2022/07/06 00:20:57;;;;;;;2.25;1.25;;;;;;;;;;5031273;28;20250;-67
2022/07/06 00:23:23;;;;;;;1.77;1.38;;;;;;;;;;5046615;28;20230;-67
2022/07/06 00:25:51;;;;;;;2.72;1.20;;;;;;;;;;5029325;28;20242;-67
2022/07/06 00:28:16;;;;;;;3.40;1.27;;;;;;;;;;5048099;28;20636;-71
2022/07/06 00:30:42;;;;;;;2.77;1.40;;;;;;;;;;5055671;28;20355;-67
2022/07/06 00:33:09;;;;;;;1.50;1.17;;;;;;;;;;5030487;28;20222;-67
2022/07/06 00:35:37;;;;;;;2.63;1.30;;;;;;;;;;5048601;28;20223;-70
2022/07/06 00:38:03;;;;;;;2.87;1.40;;;;;;;;;;5015917;28;20310;-69
2022/07/06 00:40:29;;;;;;;2.97;1.30;;;;;;;;;;5049931;28;20214;-68
2022/07/06 00:42:58;;;;;;;2.27;1.20;;;;;;;;;;5050198;28;20222;-67
2022/07/06 00:45:24;;;;;;;1.60;1.40;;;;;;;;;;5049359;28;20223;-67
2022/07/06 00:47:52;;;;;;;2.33;1.43;;;;;;;;;;5044651;28;20214;-68
2022/07/06 00:50:20;;;;;;;3.03;1.40;;;;;;;;;;5048132;28;20214;-69
2022/07/06 00:52:56;;;;;;;2.73;1.37;;;;;;;;;;5048927;28;20230;-67
2022/07/06 00:55:28;;;;;;;3.70;1.43;;;;;;;;;;5031837;28;20253;-68
2022/07/06 00:57:56;;;;;;;2.60;1.47;;;;;;;;;;5047113;28;20219;-66
2022/07/06 01:00:23;;;;;;;2.83;1.60;;;;;;;;;;5049574;28;20219;-70
2022/07/06 01:02:48;;;;;;;4.10;1.60;;;;;;;;;;5015121;28;20740;-67
2022/07/06 01:05:17;;;;;;;2.13;1.60;;;;;;;;;;5032784;28;20227;-69
2022/07/06 01:07:44;;;;;;;3.97;1.60;;;;;;;;;;5052499;28;20234;-68
2022/07/06 01:10:15;;;;;;;2.53;1.50;;;;;;;;;;5052563;28;20227;-70
2022/07/06 01:12:44;;;;;;;2.47;1.40;;;;;;;;;;5036495;28;20227;-67
2022/07/06 01:15:21;;;;;;;2.90;1.50;;;;;;;;;;5020901;28;20223;-69
2022/07/06 01:17:48;;;;;;;3.13;1.60;;;;;;;;;;5025930;28;20233;-68
2022/07/06 01:20:23;;;;;;;3.73;1.57;;;;;;;;;;5036966;28;20302;-68
2022/07/06 01:22:50;;;;;;;2.20;1.70;;;;;;;;;;5042569;28;20235;-71
2022/07/06 01:25:17;;;;;;;2.50;1.70;;;;;;;;;;5055448;28;20219;-71
2022/07/06 01:27:45;;;;;;;3.40;1.70;;;;;;;;;;5031225;28;20976;-68
2022/07/06 01:30:13;;;;;;;2.60;1.73;;;;;;;;;;5035249;28;20215;-69
2022/07/06 01:32:40;;;;;;;3.70;1.67;;;;;;;;;;5051786;28;20273;-70
2022/07/06 01:35:07;;;;;;;3.43;1.70;;;;;;;;;;5036135;28;20368;-71
2022/07/06 01:37:32;;;;;;;2.43;1.50;;;;;;;;;;5019909;28;20230;-72
2022/07/06 01:40:01;;;;;;;5.20;1.60;;;;;;;;;;5052284;28;20223;-70
2022/07/06 01:42:31;;;;;;;1.97;1.33;;;;;;;;;;5023841;28;20242;-68
2022/07/06 01:45:00;;;;;;;2.90;1.50;;;;;;;;;;5026276;28;20333;-68
2022/07/06 01:47:33;;;;;;;4.50;2.00;;;;;;;;;;5036824;28;20727;-69
2022/07/06 01:50:03;;;;;;;2.47;1.90;;;;;;;;;;5027283;28;20249;-71
2022/07/06 01:52:31;;;;;;;4.70;1.90;;;;;;;;;;5022408;28;20227;-71
2022/07/06 01:54:57;;;;;;;7.00;1.90;;;;;;;;;;5027211;28;20237;-71
2022/07/06 01:57:24;;;;;;;3.77;1.70;;;;;;;;;;5030796;28;20254;-71
2022/07/06 01:59:55;;;;;;;2.30;1.67;;;;;;;;;;5019090;28;21004;-68
2022/07/06 02:02:20;;;;;;;2.43;1.80;;;;;;;;;;5049930;28;20318;-69
2022/07/06 02:04:46;;;;;;;2.63;1.70;;;;;;;;;;5035188;28;20248;-68
2022/07/06 02:07:11;;;;;;;3.63;1.60;;;;;;;;;;5035264;28;20233;-70
2022/07/06 02:09:37;;;;;;;2.93;1.67;;;;;;;;;;5052974;28;20592;-71
2022/07/06 02:12:03;;;;;;;5.53;1.67;;;;;;;;;;5034942;28;20238;-71
2022/07/06 02:14:28;;;;;;;5.30;1.90;;;;;;;;;;5045063;28;20238;-72
2022/07/06 02:16:54;;;;;;;2.50;1.40;;;;;;;;;;5035848;28;20232;-72
2022/07/06 02:19:22;;;;;;;3.30;1.53;;;;;;;;;;5069517;28;20218;-69
2022/07/06 02:21:48;;;;;;;2.17;1.53;;;;;;;;;;5043247;28;20316;-71
2022/07/06 02:24:14;;;;;;;1.77;1.30;;;;;;;;;;5032464;28;20271;-68
2022/07/06 02:26:41;;;;;;;3.03;1.60;;;;;;;;;;5035528;28;20219;-68
2022/07/06 02:29:07;;;;;;;3.30;1.67;;;;;;;;;;5016481;28;20254;-67
2022/07/06 02:31:33;;;;;;;3.77;1.70;;;;;;;;;;5042987;28;20234;-68
2022/07/06 02:34:01;;;;;;;3.07;1.73;;;;;;;;;;5066388;28;20203;-67
2022/07/06 02:36:29;;;;;;;2.73;1.57;;;;;;;;;;5066874;28;20214;-68
2022/07/06 02:38:54;;;;;;;3.30;1.43;;;;;;;;;;5051442;28;20272;-66
2022/07/06 02:41:28;;;;;;;3.13;1.73;;;;;;;;;;5051280;28;20219;-67
2022/07/06 02:43:53;;;;;;;2.87;1.60;;;;;;;;;;5035115;28;20226;-68
2022/07/06 02:46:23;;;;;;;3.27;1.83;;;;;;;;;;5018746;28;21074;-69
2022/07/06 02:48:52;;;;;;;3.03;1.60;;;;;;;;;;5025549;28;20220;-69
2022/07/06 02:51:18;;;;;;;3.03;1.63;;;;;;;;;;5049626;28;20227;-67
2022/07/06 02:53:44;;;;;;;3.70;1.67;;;;;;;;;;5068237;28;20744;-67
2022/07/06 02:56:09;;;;;;;2.73;1.47;;;;;;;;;;5051446;28;20232;-66
2022/07/06 02:58:37;;;;;;;4.73;1.90;;;;;;;;;;5037211;28;20636;-70
2022/07/06 03:01:03;;;;;;;2.33;1.40;;;;;;;;;;5040124;28;20291;-67
2022/07/06 03:03:29;;;;;;;2.77;1.40;;;;;;;;;;5067042;28;20728;-68
2022/07/06 03:05:58;;;;;;;3.97;1.70;;;;;;;;;;5052648;28;20222;-67
2022/07/06 03:08:23;;;;;;;1.65;1.35;;;;;;;;;;5017246;28;20246;-69
2022/07/06 03:10:49;;;;;;;5.53;1.77;;;;;;;;;;5041695;28;20218;-70
2022/07/06 03:13:18;;;;;;;2.28;1.52;;;;;;;;;;5038940;28;20234;-71
2022/07/06 03:15:45;;;;;;;4.33;1.50;;;;;;;;;;5068636;28;20272;-71
2022/07/06 03:18:13;;;;;;;3.80;1.90;;;;;;;;;;5039924;28;20253;-70
2022/07/06 03:20:39;;;;;;;2.27;1.50;;;;;;;;;;5052525;28;20555;-68
2022/07/06 03:23:07;;;;;;;4.80;1.70;;;;;;;;;;5048562;28;20227;-70
2022/07/06 03:25:34;;;;;;;3.20;1.60;;;;;;;;;;5034367;28;20222;-66
2022/07/06 03:28:04;;;;;;;2.53;1.70;;;;;;;;;;5032957;28;20226;-67
2022/07/06 03:30:34;;;;;;;3.00;1.50;;;;;;;;;;5050216;28;20218;-67
2022/07/06 03:32:59;;;;;;;3.53;1.87;;;;;;;;;;5044200;28;20230;-70
2022/07/06 03:35:27;;;;;;;2.25;1.65;;;;;;;;;;5049703;28;20222;-67
2022/07/06 03:37:54;;;;;;;1.90;1.53;;;;;;;;;;5067135;28;20219;-69
2022/07/06 03:40:22;;;;;;;2.33;1.60;;;;;;;;;;5033687;28;20287;-67
2022/07/06 03:42:52;;;;;;;5.35;1.65;;;;;;;;;;5041837;28;20233;-68
2022/07/06 03:45:18;;;;;;;4.63;1.67;;;;;;;;;;5066739;28;20219;-70
2022/07/06 03:47:49;;;;;;;1.90;1.30;;;;;;;;;;5066710;28;20231;-69
2022/07/06 03:50:15;;;;;;;4.47;2.07;;;;;;;;;;5047942;28;20235;-67
2022/07/06 03:52:41;;;;;;;5.03;1.60;;;;;;;;;;5014775;28;20263;-67
2022/07/06 03:55:13;;;;;;;2.17;1.60;;;;;;;;;;5031898;28;20222;-69
2022/07/06 03:57:45;;;;;;;3.63;1.92;;;;;;;;;;5067056;28;20233;-67
2022/07/06 04:00:14;;;;;;;2.03;1.77;;;;;;;;;;5041731;28;20231;-69
2022/07/06 04:02:42;;;;;;;5.80;1.80;;;;;;;;;;5049061;28;20222;-67
2022/07/06 04:05:15;;;;;;;5.05;1.65;;;;;;;;;;5049504;28;20241;-70
2022/07/06 04:07:41;;;;;;;4.15;1.67;;;;;;;;;;5039504;28;20219;-70
2022/07/06 04:10:07;;;;;;;3.20;1.65;;;;;;;;;;5064805;28;20229;-68
2022/07/06 04:12:40;;;;;;;2.97;1.73;;;;;;;;;;5065797;28;20279;-71
2022/07/06 04:15:06;;;;;;;3.63;1.90;;;;;;;;;;5032631;28;20306;-68
2022/07/06 04:17:52;;;;;;;2.47;1.45;;;;;;;;;;5048717;28;20231;-68
2022/07/06 04:20:19;;;;;;;2.17;1.42;;;;;;;;;;5026711;28;20865;-68
2022/07/06 04:22:47;;;;;;;1.95;1.45;;;;;;;;;;5020092;28;20214;-71
2022/07/06 04:25:12;;;;;;;4.05;1.63;;;;;;;;;;5032297;28;20734;-70
2022/07/06 04:27:38;;;;;;;4.85;1.58;;;;;;;;;;5034883;28;20223;-70
2022/07/06 04:30:04;;;;;;;3.47;1.58;;;;;;;;;;5050001;28;20217;-70
2022/07/06 04:32:29;;;;;;;4.70;1.70;;;;;;;;;;5055273;28;20249;-71
2022/07/06 04:34:55;;;;;;;2.05;1.52;;;;;;;;;;5048508;28;20585;-70
2022/07/06 04:37:23;;;;;;;2.97;1.60;;;;;;;;;;5043999;28;20640;-69
2022/07/06 04:39:49;;;;;;;5.18;1.70;;;;;;;;;;5031579;28;20227;-70
2022/07/06 04:42:15;;;;;;;4.25;1.58;;;;;;;;;;5068843;28;20222;-69
2022/07/06 04:44:43;;;;;;;4.65;2.03;;;;;;;;;;5055510;28;20218;-70
2022/07/06 04:47:09;;;;;;;2.47;1.60;;;;;;;;;;5037321;28;20215;-70
2022/07/06 04:49:37;;;;;;;1.75;1.45;;;;;;;;;;5053370;28;20211;-70
2022/07/06 04:52:07;;;;;;;4.63;1.90;;;;;;;;;;5033509;28;20262;-70
2022/07/06 04:54:33;;;;;;;3.03;2.00;;;;;;;;;;5035143;28;20222;-68
2022/07/06 04:56:58;;;;;;;6.10;2.72;;;;;;;;;;5052514;28;20249;-70
2022/07/06 04:59:24;;;;;;;4.85;1.90;;;;;;;;;;5045316;28;20227;-71
2022/07/06 05:01:50;;;;;;;3.00;1.88;;;;;;;;;;5068200;28;20231;-72
2022/07/06 05:04:19;;;;;;;5.07;2.10;;;;;;;;;;5032426;28;20259;-72
2022/07/06 05:06:45;;;;;;;3.60;1.60;;;;;;;;;;5051153;28;20736;-73
2022/07/06 05:09:11;;;;;;;3.75;1.63;;;;;;;;;;5034711;28;20702;-71
2022/07/06 05:11:37;;;;;;;4.40;1.83;;;;;;;;;;5067016;28;20932;-73
2022/07/06 05:14:06;;;;;;;3.88;1.90;;;;;;;;;;5044832;28;20264;-71
2022/07/06 05:16:33;;;;;;;3.13;1.73;;;;;;;;;;5032493;28;20223;-73
2022/07/06 05:19:02;;;;;;;4.13;1.77;;;;;;;;;;5072176;28;20739;-73
2022/07/06 05:21:33;;;;;;;6.68;2.03;;;;;;;;;;5034744;28;20219;-73
2022/07/06 05:24:02;;;;;;;3.55;2.00;;;;;;;;;;5035163;28;20243;-72
2022/07/06 05:26:28;;;;;;;4.93;1.80;;;;;;;;;;5038313;28;20241;-73
2022/07/06 05:28:56;;;;;;;2.42;1.60;;;;;;;;;;5035461;28;20317;-72
2022/07/06 05:31:23;;;;;;;4.13;2.03;;;;;;;;;;5033557;28;20231;-72
2022/07/06 05:33:48;;;;;;;2.83;1.83;;;;;;;;;;5053301;28;20231;-73
2022/07/06 05:36:15;;;;;;;5.55;2.17;;;;;;;;;;5032570;28;20299;-74
2022/07/06 05:38:47;;;;;;;5.63;1.90;;;;;;;;;;5039404;28;20230;-73
2022/07/06 05:41:15;;;;;;;2.88;1.70;;;;;;;;;;5011565;28;20215;-72
2022/07/06 05:43:40;;;;;;;4.35;1.60;;;;;;;;;;5053508;28;20288;-69
2022/07/06 05:46:09;;;;;;;5.68;2.00;;;;;;;;;;5043208;28;20218;-72
2022/07/06 05:51:23;;;;;;;3.53;1.73;;;;;;;;;;5040421;28;20700;-72
2022/07/06 05:53:49;;;;;;;3.45;1.75;;;;;;;;;;5068755;28;20233;-73
2022/07/06 05:56:15;;;;;;;5.00;1.73;;;;;;;;;;5044242;28;20459;-72
2022/07/06 05:58:42;;;;;;;3.88;1.80;;;;;;;;;;5051800;28;20596;-71
2022/07/06 06:01:08;;;;;;;6.03;1.38;;;;;;;;;;5050229;28;20221;-70
2022/07/06 06:03:37;;;;;;;4.35;1.60;;;;;;;;;;5035882;28;20222;-72
2022/07/06 06:06:04;;;;;;;4.20;1.50;;;;;;;;;;5032359;28;20616;-73
2022/07/06 06:08:30;;;;;;;2.55;1.33;;;;;;;;;;5020881;28;20692;-73
2022/07/06 06:10:58;;;;;;;3.55;1.30;;;;;;;;;;5034856;28;20241;-72
2022/07/06 06:13:27;;;;;;;4.80;1.23;;;;;;;;;;5069388;28;20229;-72
2022/07/06 06:15:53;;;;;;;5.18;1.20;;;;;;;;;;5034434;28;20227;-72
2022/07/06 06:18:19;;;;;;;2.53;1.25;;;;;;;;;;5026580;28;20226;-74
2022/07/06 06:20:45;;;;;;;1.95;1.15;;;;;;;;;;5035498;28;20268;-73
2022/07/06 06:23:11;;;;;;;3.55;1.30;;;;;;;;;;5050491;28;20245;-68
2022/07/06 06:25:40;;;;;;;3.00;1.35;;;;;;;;;;5020168;28;20753;-74
2022/07/06 06:28:07;;;;;;;2.70;1.23;;;;;;;;;;5003056;28;20231;-72
2022/07/06 06:30:33;;;;;;;3.50;1.23;;;;;;;;;;5052857;28;20280;-72
2022/07/06 06:33:12;;;;;;;6.43;1.23;;;;;;;;;;5005328;28;20239;-73
2022/07/06 06:35:43;;;;;;;7.43;1.40;;;;;;;;;;5056902;28;20229;-73
2022/07/06 06:38:13;;;;;;;3.53;1.42;;;;;;;;;;5014173;28;20240;-72
2022/07/06 06:40:39;;;;;;;3.92;1.20;;;;;;;;;;5021508;28;20226;-73
2022/07/06 06:43:07;;;;;;;6.43;1.55;;;;;;;;;;5033445;28;20254;-68
2022/07/06 06:45:39;;;;;;;4.45;1.23;;;;;;;;;;5022539;28;20219;-71
2022/07/06 06:48:04;;;;;;;4.72;1.45;;;;;;;;;;5031312;28;20701;-68
2022/07/06 06:50:32;;;;;;;5.32;1.42;;;;;;;;;;5054262;28;20226;-68
2022/07/06 06:52:58;;;;;;;3.85;1.25;;;;;;;;;;5033613;28;20712;-74
2022/07/06 06:55:24;;;;;;;2.90;1.00;;;;;;;;;;5068023;28;20222;-72
2022/07/06 06:57:50;;;;;;;3.25;1.20;;;;;;;;;;5049384;28;20258;-72
2022/07/06 07:00:27;;;;;;;4.60;1.10;;;;;;;;;;5010975;28;20207;-73
2022/07/06 07:03:02;;;;;;;6.80;1.27;;;;;;;;;;5039798;28;20262;-68
2022/07/06 07:05:28;;;;;;;2.88;1.10;;;;;;;;;;5049564;28;20231;-69
2022/07/06 07:07:54;;;;;;;3.55;1.00;;;;;;;;;;5051148;28;20227;-73
2022/07/06 07:10:21;;;;;;;2.08;0.88;;;;;;;;;;5049879;28;20211;-69
2022/07/06 07:12:46;;;;;;;3.30;1.15;;;;;;;;;;5033250;28;20254;-72
2022/07/06 07:15:12;;;;;;;3.30;1.17;;;;;;;;;;5032972;28;20242;-72
2022/07/06 07:17:38;;;;;;;2.28;0.90;;;;;;;;;;5015547;28;20224;-73
2022/07/06 07:20:04;;;;;;;3.78;0.90;;;;;;;;;;5027386;28;20211;-70
2022/07/06 07:22:32;;;;;;;5.15;1.20;;;;;;;;;;5067510;28;20364;-72
2022/07/06 07:25:00;;;;;;;3.28;1.15;;;;;;;;;;5032751;28;20218;-69
2022/07/06 07:27:26;;;;;;;2.45;1.15;;;;;;;;;;5027377;28;20318;-75
2022/07/06 07:29:53;;;;;;;3.05;1.20;;;;;;;;;;5050851;28;20590;-69
2022/07/06 07:32:19;;;;;;;5.63;1.25;;;;;;;;;;5036808;28;20239;-69
2022/07/06 07:34:47;;;;;;;5.68;1.02;;;;;;;;;;5046123;28;20223;-71
2022/07/06 07:37:13;;;;;;;5.10;1.30;;;;;;;;;;5048002;28;20231;-68
2022/07/06 07:39:38;;;;;;;3.00;1.20;;;;;;;;;;5034920;28;20215;-71
2022/07/06 07:42:08;;;;;;;3.28;1.05;;;;;;;;;;5044215;28;20583;-72
2022/07/06 07:44:38;;;;;;;3.47;1.20;;;;;;;;;;5033982;28;20223;-73
2022/07/06 07:47:06;;;;;;;3.78;1.48;;;;;;;;;;5035403;28;20219;-71
2022/07/06 07:49:34;;;;;;;3.30;1.10;;;;;;;;;;5049586;28;20226;-70
2022/07/06 07:52:00;;;;;;;2.30;1.08;;;;;;;;;;5033920;28;20589;-71
2022/07/06 07:54:26;;;;;;;3.53;1.10;;;;;;;;;;5033180;28;20225;-70
2022/07/06 07:56:51;;;;;;;5.22;1.05;;;;;;;;;;5032271;28;20238;-72
2022/07/06 07:59:17;;;;;;;3.50;1.40;;;;;;;;;;5034583;28;20708;-70
2022/07/06 08:01:43;;;;;;;3.88;1.20;;;;;;;;;;5065896;28;20284;-70
2022/07/06 08:04:11;;;;;;;3.50;1.10;;;;;;;;;;5035169;28;20908;-71
2022/07/06 08:06:36;;;;;;;3.05;1.10;;;;;;;;;;5036550;28;20229;-71
2022/07/06 08:09:07;;;;;;;2.58;0.90;;;;;;;;;;5040947;28;20219;-73
2022/07/06 08:11:35;;;;;;;4.72;1.02;;;;;;;;;;5010802;28;20233;-72
2022/07/06 08:14:01;;;;;;;1.88;0.95;;;;;;;;;;5034388;28;20317;-73
2022/07/06 08:16:27;;;;;;;3.38;0.98;;;;;;;;;;5046697;28;20223;-71
2022/07/06 08:18:53;;;;;;;4.55;1.00;;;;;;;;;;5041221;28;20229;-73
2022/07/06 08:21:18;;;;;;;2.47;0.80;;;;;;;;;;5049560;28;20219;-72
2022/07/06 08:23:49;;;;;;;3.33;0.85;;;;;;;;;;5048274;28;20227;-72
2022/07/06 08:26:17;;;;;;;1.63;0.65;;;;;;;;;;5017360;28;20207;-71
2022/07/06 08:28:42;;;;;;;2.63;0.95;;;;;;;;;;5049144;28;20804;-70
2022/07/06 08:31:11;;;;;;;3.90;0.90;;;;;;;;;;5015707;28;20222;-71
2022/07/06 08:33:36;;;;;;;1.83;0.90;;;;;;;;;;5065469;28;20246;-72
2022/07/06 08:36:02;;;;;;;3.55;1.00;;;;;;;;;;5016492;28;20214;-72
2022/07/06 08:38:28;;;;;;;2.60;0.95;;;;;;;;;;5024831;28;20218;-72
2022/07/06 08:40:54;;;;;;;1.98;1.00;;;;;;;;;;5021819;28;20696;-72
2022/07/06 08:43:22;;;;;;;5.40;1.00;;;;;;;;;;5030379;28;20223;-72
2022/07/06 08:45:49;;;;;;;2.90;1.00;;;;;;;;;;5022394;28;20281;-72
2022/07/06 08:48:15;;;;;;;1.92;0.90;;;;;;;;;;5035226;28;20305;-73
2022/07/06 08:50:45;;;;;;;2.58;0.90;;;;;;;;;;5056247;28;20314;-72
2022/07/06 08:53:11;;;;;;;4.43;0.90;;;;;;;;;;5045998;28;20222;-72
2022/07/06 08:55:40;;;;;;;2.10;0.90;;;;;;;;;;5033013;28;20526;-73
2022/07/06 08:58:07;;;;;;;2.42;1.13;;;;;;;;;;5017230;28;20766;-72
2022/07/06 09:00:34;;;;;;;4.68;1.33;;;;;;;;;;5049436;28;20222;-72
2022/07/06 09:03:00;;;;;;;6.82;1.40;;;;;;;;;;5049421;28;20226;-72
2022/07/06 09:05:26;;;;;;;3.28;0.90;;;;;;;;;;5018229;28;20225;-72
2022/07/06 09:07:52;;;;;;;2.90;0.90;;;;;;;;;;5042916;28;20231;-72
2022/07/06 09:10:18;;;;;;;4.55;1.20;;;;;;;;;;5050424;28;20269;-74
2022/07/06 09:12:45;;;;;;;2.22;0.93;;;;;;;;;;5048395;28;20292;-71
2022/07/06 09:15:10;;;;;;;2.75;0.90;;;;;;;;;;5049481;28;20306;-71
2022/07/06 09:17:44;;;;;;;3.20;1.08;;;;;;;;;;5050331;28;20226;-71
2022/07/06 09:20:14;;;;;;;4.93;1.00;;;;;;;;;;5006992;28;20227;-73
2022/07/06 09:22:40;;;;;;;2.22;0.90;;;;;;;;;;5051153;28;20225;-73
2022/07/06 09:25:11;;;;;;;1.33;1.05;;;;;;;;;;5051861;28;20215;-71
2022/07/06 09:27:38;;;;;;;3.35;0.85;;;;;;;;;;5051404;28;20250;-72
2022/07/06 09:30:04;;;;;;;2.50;0.80;;;;;;;;;;5019951;28;20711;-71
2022/07/06 09:32:30;;;;;;;3.75;1.00;;;;;;;;;;5019079;28;20222;-71
2022/07/06 09:34:56;;;;;;;3.28;1.00;;;;;;;;;;5055335;28;20276;-72
2022/07/06 09:37:23;;;;;;;3.30;1.05;;;;;;;;;;5026736;28;20215;-74
2022/07/06 09:39:49;;;;;;;4.40;1.08;;;;;;;;;;5053150;28;20222;-73
2022/07/06 09:42:14;;;;;;;2.95;0.77;;;;;;;;;;5067586;28;20301;-72
2022/07/06 09:44:41;;;;;;;1.98;0.85;;;;;;;;;;5036734;28;20241;-73
2022/07/06 09:47:10;;;;;;;3.25;0.93;;;;;;;;;;5048233;28;20226;-72
2022/07/06 09:49:36;;;;;;;3.22;0.88;;;;;;;;;;5033849;28;20242;-73
2022/07/06 09:52:11;;;;;;;2.03;0.88;;;;;;;;;;5035760;28;20241;-68
2022/07/06 09:54:40;;;;;;;4.68;0.88;;;;;;;;;;5033826;28;20218;-72
2022/07/06 09:57:08;;;;;;;2.83;0.98;;;;;;;;;;5000760;28;20356;-69
2022/07/06 09:59:35;;;;;;;1.90;0.88;;;;;;;;;;5020518;28;20284;-71
2022/07/06 10:02:05;;;;;;;3.92;1.00;;;;;;;;;;5035665;28;20219;-71
2022/07/06 10:04:31;;;;;;;1.67;0.80;;;;;;;;;;5052193;28;20222;-74
2022/07/06 10:06:57;;;;;;;4.32;1.10;;;;;;;;;;5025415;28;20238;-73
2022/07/06 10:09:25;;;;;;;1.40;0.68;;;;;;;;;;5015269;28;20211;-70
2022/07/06 10:12:00;;;;;;;1.25;0.70;;;;;;;;;;5035621;28;20219;-71
2022/07/06 10:14:30;;;;;;;1.65;0.60;;;;;;;;;;5037307;28;20712;-71
2022/07/06 10:16:57;;;;;;;2.42;0.70;;;;;;;;;;5039837;28;20223;-72
2022/07/06 10:19:23;;;;;;;1.65;0.70;;;;;;;;;;5035672;28;20268;-73
2022/07/06 10:21:51;;;;;;;1.75;0.80;;;;;;;;;;5042021;28;20227;-73
2022/07/06 10:24:19;;;;;;;3.05;0.90;;;;;;;;;;5052143;28;20250;-72
2022/07/06 10:26:45;;;;;;;2.53;0.80;;;;;;;;;;5035597;28;20215;-72
2022/07/06 10:29:10;;;;;;;1.52;0.63;;;;;;;;;;5035563;28;20222;-73
2022/07/06 10:31:41;;;;;;;3.40;0.70;;;;;;;;;;5017602;28;20233;-73
2022/07/06 10:34:15;;;;;;;2.08;0.70;;;;;;;;;;4998728;28;20263;-72
2022/07/06 10:36:45;;;;;;;2.70;0.60;;;;;;;;;;5035533;28;20226;-73
2022/07/06 10:42:08;;;;;;;1.27;0.70;;;;;;;;;;5056208;28;20214;-69
2022/07/06 10:44:44;;;;;;;4.22;0.75;;;;;;;;;;5038066;28;20230;-72
2022/07/06 10:47:15;;;;;;;1.38;0.50;;;;;;;;;;5037537;28;20249;-72
2022/07/06 10:49:51;;;;;;;3.10;0.60;;;;;;;;;;5023197;28;20696;-72
2022/07/06 10:52:17;;;;;;;1.27;0.68;;;;;;;;;;5024905;28;20226;-72
2022/07/06 10:54:45;;;;;;;0.98;0.40;;;;;;;;;;5036137;28;20814;-73
2022/07/06 10:57:20;;;;;;;1.70;0.65;;;;;;;;;;5035400;28;20231;-71
2022/07/06 11:00:04;;;;;;;3.35;0.70;;;;;;;;;;5036685;28;20276;-72
2022/07/06 11:02:38;;;;;;;1.48;0.60;;;;;;;;;;5032696;28;20254;-72
2022/07/06 11:05:04;;;;;;;1.92;0.50;;;;;;;;;;5017598;28;20981;-74
2022/07/06 11:07:29;;;;;;;1.00;0.60;;;;;;;;;;5053346;28;20230;-72
2022/07/06 11:09:56;;;;;;;1.50;0.57;;;;;;;;;;5018255;28;20215;-72
2022/07/06 11:12:25;;;;;;;1.90;0.40;;;;;;;;;;5033396;28;20237;-72
2022/07/06 11:14:54;;;;;;;1.50;0.60;;;;;;;;;;5020451;28;20219;-71
2022/07/06 11:17:23;;;;;;;1.45;0.65;;;;;;;;;;5049039;28;20264;-72
2022/07/06 11:20:03;;;;;;;1.98;0.85;;;;;;;;;;5033625;28;20662;-75
2022/07/06 11:22:31;;;;;;;0.80;0.45;;;;;;;;;;5026005;28;20368;-73
2022/07/06 11:25:03;;;;;;;3.88;0.70;;;;;;;;;;5022517;28;20246;-72
2022/07/06 11:27:32;;;;;;;1.42;0.52;;;;;;;;;;5034409;28;20237;-73
2022/07/06 11:29:58;;;;;;;1.80;0.70;;;;;;;;;;5021325;28;20222;-72
2022/07/06 11:32:24;;;;;;;1.27;0.60;;;;;;;;;;5032377;28;20309;-72
2022/07/06 11:34:50;;;;;;;1.67;0.60;;;;;;;;;;5018841;28;20276;-71
2022/07/06 11:37:17;;;;;;;0.70;0.40;;;;;;;;;;5049800;28;20215;-72
2022/07/06 11:39:44;;;;;;;1.33;0.70;;;;;;;;;;5037533;28;20227;-70
2022/07/06 11:42:14;;;;;;;2.47;0.65;;;;;;;;;;5048084;28;20209;-70
2022/07/06 11:44:40;;;;;;;0.75;0.35;;;;;;;;;;5052125;28;20626;-75
2022/07/06 11:47:06;;;;;;;1.60;0.75;;;;;;;;;;5018388;28;20225;-74
2022/07/06 11:49:32;;;;;;;3.15;0.68;;;;;;;;;;5034059;28;20688;-73
2022/07/06 11:51:58;;;;;;;2.28;0.50;;;;;;;;;;5032250;28;20226;-73
2022/07/06 11:54:26;;;;;;;2.10;0.50;;;;;;;;;;5027087;28;20701;-72
2022/07/06 11:57:01;;;;;;;1.55;0.45;;;;;;;;;;5052763;28;20218;-75
2022/07/06 11:59:27;;;;;;;0.98;0.40;;;;;;;;;;5025266;28;20302;-73
2022/07/06 12:02:05;;;;;;;1.13;0.50;;;;;;;;;;5048840;28;20229;-72
2022/07/06 12:04:34;;;;;;;0.95;0.50;;;;;;;;;;5067710;28;20238;-71
2022/07/06 12:07:11;;;;;;;1.00;0.50;;;;;;;;;;5033959;28;20226;-72
2022/07/06 12:09:38;;;;;;;1.73;0.60;;;;;;;;;;5031782;28;20309;-72
2022/07/06 12:12:04;;;;;;;2.25;0.63;;;;;;;;;;5032742;28;20285;-71
2022/07/06 12:14:31;;;;;;;1.75;0.60;;;;;;;;;;5034048;28;20272;-73
2022/07/06 12:17:05;;;;;;;2.45;0.75;;;;;;;;;;5049699;28;20230;-73
2022/07/06 12:19:34;;;;;;;1.85;0.80;;;;;;;;;;5050170;28;20710;-76
2022/07/06 12:22:02;;;;;;;1.33;0.60;;;;;;;;;;5051243;28;20215;-73
2022/07/06 12:24:31;;;;;;;3.20;0.80;;;;;;;;;;5032634;28;20271;-74
2022/07/06 12:26:57;;;;;;;1.55;0.80;;;;;;;;;;5048306;28;20238;-74
2022/07/06 12:29:22;;;;;;;2.47;0.73;;;;;;;;;;5034144;28;20242;-69
2022/07/06 12:31:53;;;;;;;1.42;0.70;;;;;;;;;;5028729;28;20222;-70
2022/07/06 12:34:25;;;;;;;2.45;0.80;;;;;;;;;;5030159;28;20636;-69
2022/07/06 12:36:55;;;;;;;3.45;0.82;;;;;;;;;;5033636;28;20253;-70
2022/07/06 12:39:30;;;;;;;2.63;0.60;;;;;;;;;;5046387;28;20279;-71
2022/07/06 12:42:02;;;;;;;4.05;1.20;;;;;;;;;;5048789;28;20218;-69
2022/07/06 12:44:28;;;;;;;2.03;0.82;;;;;;;;;;5043083;28;20218;-71
2022/07/06 12:47:05;;;;;;;2.20;0.70;;;;;;;;;;5050154;28;20572;-71
2022/07/06 12:49:34;;;;;;;1.05;0.68;;;;;;;;;;5044373;28;20254;-73
2022/07/06 12:51:59;;;;;;;4.25;0.80;;;;;;;;;;5048407;28;20334;-72
2022/07/06 12:54:32;;;;;;;3.25;0.70;;;;;;;;;;5043230;28;20790;-72
2022/07/06 12:57:19;;;;;;;1.98;0.90;;;;;;;;;;5038629;28;20272;-71
2022/07/06 12:59:49;;;;;;;2.80;0.85;;;;;;;;;;5064753;28;20231;-70
2022/07/06 13:02:24;;;;;;;2.50;0.80;;;;;;;;;;5050654;28;20468;-69
2022/07/06 13:05:04;;;;;;;2.75;0.80;;;;;;;;;;5031197;28;20263;-69
2022/07/06 13:07:35;;;;;;;3.50;0.82;;;;;;;;;;5069281;28;20230;-73
2022/07/06 13:10:04;;;;;;;3.60;0.73;;;;;;;;;;5037118;28;20556;-73
2022/07/06 13:12:30;;;;;;;2.42;0.80;;;;;;;;;;5052961;28;20260;-71
2022/07/06 13:14:55;;;;;;;3.03;0.73;;;;;;;;;;5042138;28;20230;-71
2022/07/06 13:17:21;;;;;;;1.73;0.50;;;;;;;;;;5057850;28;20227;-70
2022/07/06 13:19:52;;;;;;;1.38;0.80;;;;;;;;;;5048207;28;20226;-72
2022/07/06 13:22:18;;;;;;;2.28;0.70;;;;;;;;;;5028124;28;20217;-70
2022/07/06 13:24:46;;;;;;;3.25;1.02;;;;;;;;;;5012788;28;20219;-72
2022/07/06 13:27:11;;;;;;;1.60;0.70;;;;;;;;;;5055037;28;20218;-72
2022/07/06 13:29:38;;;;;;;2.65;0.93;;;;;;;;;;5025697;28;20230;-71
2022/07/06 13:32:04;;;;;;;1.52;0.60;;;;;;;;;;5020022;28;20231;-72
2022/07/06 13:34:30;;;;;;;3.53;0.70;;;;;;;;;;5054886;28;20254;-72
2022/07/06 13:36:58;;;;;;;4.50;0.90;;;;;;;;;;5017182;28;20270;-71
2022/07/06 13:39:27;;;;;;;3.63;0.90;;;;;;;;;;5051591;28;20309;-72
2022/07/06 13:41:53;;;;;;;2.30;0.93;;;;;;;;;;5068385;28;20672;-70
2022/07/06 13:44:20;;;;;;;2.97;0.60;;;;;;;;;;5036153;28;20752;-72
2022/07/06 13:46:48;;;;;;;1.65;0.68;;;;;;;;;;5035409;28;20239;-70
2022/07/06 13:49:13;;;;;;;2.42;0.77;;;;;;;;;;5050990;28;20257;-70
2022/07/06 13:51:39;;;;;;;1.92;0.60;;;;;;;;;;5049293;28;20223;-71
2022/07/06 13:54:05;;;;;;;1.65;0.60;;;;;;;;;;5021028;28;20233;-72
2022/07/06 13:56:31;;;;;;;1.52;0.50;;;;;;;;;;5007332;28;20226;-74
2022/07/06 13:59:01;;;;;;;2.30;0.60;;;;;;;;;;5000925;28;20227;-72
2022/07/06 14:01:36;;;;;;;1.02;0.73;;;;;;;;;;5022889;28;20229;-71
2022/07/06 14:04:07;;;;;;;1.05;0.60;;;;;;;;;;5036112;28;20219;-72
2022/07/06 14:06:36;;;;;;;2.15;0.70;;;;;;;;;;5036455;28;20221;-71
2022/07/06 14:09:02;;;;;;;1.40;0.82;;;;;;;;;;5035970;28;20225;-74
2022/07/06 14:11:27;;;;;;;3.22;0.70;;;;;;;;;;5024712;28;20601;-72
2022/07/06 14:13:53;;;;;;;1.58;0.50;;;;;;;;;;5051616;28;20720;-71
2022/07/06 14:16:19;;;;;;;1.40;0.60;;;;;;;;;;5047547;28;20235;-72
2022/07/06 14:18:44;;;;;;;1.00;0.60;;;;;;;;;;5035763;28;20742;-71
2022/07/06 14:21:10;;;;;;;2.45;1.13;;;;;;;;;;5033222;28;20215;-73
2022/07/06 14:23:38;;;;;;;2.22;0.63;;;;;;;;;;5052941;28;20226;-70
2022/07/06 14:26:06;;;;;;;1.65;0.50;;;;;;;;;;5050927;28;20569;-72
2022/07/06 14:28:35;;;;;;;1.70;0.63;;;;;;;;;;5069446;28;20252;-71
2022/07/06 14:31:02;;;;;;;1.75;0.60;;;;;;;;;;5036256;28;20222;-71
2022/07/06 14:33:28;;;;;;;1.60;0.80;;;;;;;;;;5046698;28;20309;-72
2022/07/06 14:35:53;;;;;;;1.50;0.60;;;;;;;;;;5052950;28;20227;-71
2022/07/06 14:38:22;;;;;;;1.30;0.55;;;;;;;;;;5036954;28;20352;-70
2022/07/06 14:40:49;;;;;;;1.33;0.65;;;;;;;;;;5069697;28;20291;-71
2022/07/06 14:43:15;;;;;;;2.15;0.77;;;;;;;;;;5035350;28;20244;-71
2022/07/06 14:45:43;;;;;;;2.03;0.68;;;;;;;;;;5070106;28;20242;-72
2022/07/06 14:48:09;;;;;;;1.83;0.45;;;;;;;;;;5039064;28;20234;-72
2022/07/06 14:50:35;;;;;;;4.70;0.60;;;;;;;;;;5058815;28;20617;-73
2022/07/06 14:53:01;;;;;;;1.60;0.50;;;;;;;;;;5051601;28;20234;-71